sensor_id;sensor_type;location;lat;lon;timestamp;P1;durP1;ratioP1;P2;durP2;ratioP2
16015;SDS011;8112;53.592;10.184;2022-09-13T00:03:17;3.00;;;2.80;;
16015;SDS011;8112;53.592;10.184;2022-09-13T00:08:19;3.30;;;3.00;;
16015;SDS011;8112;53.592;10.184;2022-09-13T00:13:21;3.00;;;2.80;;
16015;SDS011;8112;53.592;10.184;2022-09-13T00:18:24;2.80;;;2.60;;
16015;SDS011;8112;53.592;10.184;2022-09-13T00:23:26;3.47;;;2.90;;
16015;SDS011;8112;53.592;10.184;2022-09-13T00:28:28;3.30;;;3.00;;
16015;SDS011;8112;53.592;10.184;2022-09-13T00:33:31;4.40;;;3.20;;
16015;SDS011;8112;53.592;10.184;2022-09-13T00:38:33;5.03;;;3.33;;
16015;SDS011;8112;53.592;10.184;2022-09-13T00:43:42;3.97;;;3.43;;
16015;SDS011;8112;53.592;10.184;2022-09-13T00:49:27;3.83;;;3.03;;
16015;SDS011;8112;53.592;10.184;2022-09-13T00:54:35;4.00;;;3.50;;
16015;SDS011;8112;53.592;10.184;2022-09-13T00:59:41;3.80;;;3.50;;
16015;SDS011;8112;53.592;10.184;2022-09-13T01:04:49;4.50;;;3.80;;
16015;SDS011;8112;53.592;10.184;2022-09-13T01:09:50;3.80;;;3.50;;
16015;SDS011;8112;53.592;10.184;2022-09-13T01:14:53;4.30;;;3.90;;
16015;SDS011;8112;53.592;10.184;2022-09-13T01:20:00;4.90;;;4.40;;
16015;SDS011;8112;53.592;10.184;2022-09-13T01:25:26;4.40;;;4.00;;
16015;SDS011;8112;53.592;10.184;2022-09-13T01:30:47;4.70;;;4.30;;
16015;SDS011;8112;53.592;10.184;2022-09-13T01:36:13;4.27;;;3.93;;
16015;SDS011;8112;53.592;10.184;2022-09-13T01:41:36;4.87;;;4.17;;
16015;SDS011;8112;53.592;10.184;2022-09-13T01:46:51;5.90;;;4.23;;
16015;SDS011;8112;53.592;10.184;2022-09-13T01:52:06;4.73;;;4.33;;
16015;SDS011;8112;53.592;10.184;2022-09-13T01:57:15;4.70;;;4.30;;
16015;SDS011;8112;53.592;10.184;2022-09-13T02:02:24;4.63;;;4.17;;
16015;SDS011;8112;53.592;10.184;2022-09-13T02:07:29;4.67;;;4.27;;
16015;SDS011;8112;53.592;10.184;2022-09-13T02:12:35;4.90;;;4.20;;
16015;SDS011;8112;53.592;10.184;2022-09-13T02:17:44;5.97;;;5.07;;
16015;SDS011;8112;53.592;10.184;2022-09-13T02:22:53;13.33;;;4.93;;
16015;SDS011;8112;53.592;10.184;2022-09-13T02:28:00;4.93;;;4.53;;
16015;SDS011;8112;53.592;10.184;2022-09-13T02:33:11;5.27;;;4.77;;
16015;SDS011;8112;53.592;10.184;2022-09-13T02:38:19;4.63;;;4.23;;
16015;SDS011;8112;53.592;10.184;2022-09-13T02:43:29;4.93;;;4.50;;
16015;SDS011;8112;53.592;10.184;2022-09-13T02:48:41;5.40;;;4.90;;
16015;SDS011;8112;53.592;10.184;2022-09-13T02:53:54;4.70;;;4.30;;
16015;SDS011;8112;53.592;10.184;2022-09-13T02:59:04;4.97;;;4.53;;
16015;SDS011;8112;53.592;10.184;2022-09-13T03:04:15;5.70;;;5.10;;
16015;SDS011;8112;53.592;10.184;2022-09-13T03:09:17;5.70;;;5.10;;
16015;SDS011;8112;53.592;10.184;2022-09-13T03:14:24;5.20;;;4.70;;
16015;SDS011;8112;53.592;10.184;2022-09-13T03:19:42;5.80;;;5.20;;
16015;SDS011;8112;53.592;10.184;2022-09-13T03:24:55;5.10;;;4.70;;
16015;SDS011;8112;53.592;10.184;2022-09-13T03:30:09;5.90;;;5.30;;
16015;SDS011;8112;53.592;10.184;2022-09-13T03:35:18;5.50;;;5.00;;
16015;SDS011;8112;53.592;10.184;2022-09-13T03:40:33;5.97;;;5.40;;
16015;SDS011;8112;53.592;10.184;2022-09-13T03:45:41;5.63;;;5.13;;
16015;SDS011;8112;53.592;10.184;2022-09-13T03:50:50;5.70;;;5.20;;
16015;SDS011;8112;53.592;10.184;2022-09-13T03:55:52;6.17;;;5.27;;
16015;SDS011;8112;53.592;10.184;2022-09-13T04:00:53;5.80;;;5.30;;
16015;SDS011;8112;53.592;10.184;2022-09-13T04:05:57;5.77;;;5.20;;
16015;SDS011;8112;53.592;10.184;2022-09-13T04:10:59;6.83;;;6.23;;
16015;SDS011;8112;53.592;10.184;2022-09-13T04:16:02;6.90;;;6.10;;
16015;SDS011;8112;53.592;10.184;2022-09-13T04:21:07;9.10;;;6.80;;
16015;SDS011;8112;53.592;10.184;2022-09-13T04:26:09;7.63;;;6.93;;
16015;SDS011;8112;53.592;10.184;2022-09-13T04:31:11;7.77;;;7.00;;
16015;SDS011;8112;53.592;10.184;2022-09-13T04:36:15;8.10;;;7.27;;
16015;SDS011;8112;53.592;10.184;2022-09-13T04:41:17;9.60;;;8.10;;
16015;SDS011;8112;53.592;10.184;2022-09-13T04:46:18;9.87;;;8.67;;
16015;SDS011;8112;53.592;10.184;2022-09-13T04:51:21;11.83;;;9.37;;
16015;SDS011;8112;53.592;10.184;2022-09-13T04:56:24;9.97;;;8.97;;
16015;SDS011;8112;53.592;10.184;2022-09-13T05:01:26;11.73;;;9.97;;
16015;SDS011;8112;53.592;10.184;2022-09-13T05:06:29;11.33;;;10.23;;
16015;SDS011;8112;53.592;10.184;2022-09-13T05:11:31;11.87;;;10.57;;
16015;SDS011;8112;53.592;10.184;2022-09-13T05:16:35;15.93;;;13.60;;
16015;SDS011;8112;53.592;10.184;2022-09-13T05:21:42;17.60;;;15.00;;
16015;SDS011;8112;53.592;10.184;2022-09-13T05:26:46;19.87;;;16.23;;
16015;SDS011;8112;53.592;10.184;2022-09-13T05:31:48;18.90;;;16.10;;
16015;SDS011;8112;53.592;10.184;2022-09-13T05:36:57;18.70;;;16.50;;
16015;SDS011;8112;53.592;10.184;2022-09-13T05:42:12;18.70;;;16.63;;
16015;SDS011;8112;53.592;10.184;2022-09-13T05:54:19;19.53;;;16.23;;
16015;SDS011;8112;53.592;10.184;2022-09-13T05:59:24;18.23;;;16.20;;
16015;SDS011;8112;53.592;10.184;2022-09-13T06:04:29;19.20;;;16.77;;
16015;SDS011;8112;53.592;10.184;2022-09-13T06:09:49;18.47;;;16.50;;
16015;SDS011;8112;53.592;10.184;2022-09-13T06:14:55;17.43;;;15.63;;
16015;SDS011;8112;53.592;10.184;2022-09-13T06:20:01;18.47;;;15.93;;
16015;SDS011;8112;53.592;10.184;2022-09-13T06:35:58;15.77;;;13.70;;
16015;SDS011;8112;53.592;10.184;2022-09-13T06:41:03;18.40;;;15.50;;
16015;SDS011;8112;53.592;10.184;2022-09-13T06:46:07;18.10;;;15.27;;
16015;SDS011;8112;53.592;10.184;2022-09-13T06:51:10;14.33;;;12.13;;
16015;SDS011;8112;53.592;10.184;2022-09-13T06:56:19;20.03;;;15.13;;
16015;SDS011;8112;53.592;10.184;2022-09-13T07:01:31;15.83;;;13.50;;
16015;SDS011;8112;53.592;10.184;2022-09-13T07:06:35;17.30;;;13.60;;
16015;SDS011;8112;53.592;10.184;2022-09-13T07:11:40;17.40;;;13.17;;
16015;SDS011;8112;53.592;10.184;2022-09-13T07:16:42;18.50;;;13.23;;
16015;SDS011;8112;53.592;10.184;2022-09-13T07:21:45;15.00;;;11.83;;
16015;SDS011;8112;53.592;10.184;2022-09-13T07:26:50;14.13;;;11.90;;
16015;SDS011;8112;53.592;10.184;2022-09-13T07:31:53;15.40;;;11.40;;
16015;SDS011;8112;53.592;10.184;2022-09-13T07:36:55;12.73;;;10.87;;
16015;SDS011;8112;53.592;10.184;2022-09-13T07:41:58;15.03;;;11.70;;
16015;SDS011;8112;53.592;10.184;2022-09-13T07:47:00;12.40;;;8.90;;
16015;SDS011;8112;53.592;10.184;2022-09-13T07:52:02;12.40;;;7.97;;
16015;SDS011;8112;53.592;10.184;2022-09-13T07:57:05;10.13;;;7.00;;
16015;SDS011;8112;53.592;10.184;2022-09-13T08:02:07;8.70;;;6.47;;
16015;SDS011;8112;53.592;10.184;2022-09-13T08:07:09;9.53;;;7.03;;
16015;SDS011;8112;53.592;10.184;2022-09-13T08:12:12;8.33;;;6.03;;
16015;SDS011;8112;53.592;10.184;2022-09-13T08:17:14;11.20;;;5.43;;
16015;SDS011;8112;53.592;10.184;2022-09-13T08:22:16;7.60;;;5.13;;
16015;SDS011;8112;53.592;10.184;2022-09-13T08:27:20;7.77;;;5.23;;
16015;SDS011;8112;53.592;10.184;2022-09-13T08:32:22;6.93;;;3.87;;
16015;SDS011;8112;53.592;10.184;2022-09-13T08:37:24;5.20;;;3.33;;
16015;SDS011;8112;53.592;10.184;2022-09-13T08:42:29;4.70;;;3.10;;
16015;SDS011;8112;53.592;10.184;2022-09-13T08:47:45;5.57;;;2.50;;
16015;SDS011;8112;53.592;10.184;2022-09-13T08:52:56;5.17;;;2.53;;
16015;SDS011;8112;53.592;10.184;2022-09-13T08:58:10;3.03;;;1.50;;
16015;SDS011;8112;53.592;10.184;2022-09-13T09:03:27;3.77;;;1.70;;
16015;SDS011;8112;53.592;10.184;2022-09-13T09:08:38;3.23;;;1.40;;
16015;SDS011;8112;53.592;10.184;2022-09-13T09:13:49;4.77;;;1.60;;
16015;SDS011;8112;53.592;10.184;2022-09-13T09:18:55;4.70;;;0.93;;
16015;SDS011;8112;53.592;10.184;2022-09-13T09:24:04;3.50;;;1.43;;
16015;SDS011;8112;53.592;10.184;2022-09-13T09:29:12;5.03;;;1.17;;
16015;SDS011;8112;53.592;10.184;2022-09-13T09:34:19;3.80;;;1.30;;
16015;SDS011;8112;53.592;10.184;2022-09-13T09:39:30;3.20;;;1.03;;
16015;SDS011;8112;53.592;10.184;2022-09-13T09:44:39;3.20;;;0.87;;
16015;SDS011;8112;53.592;10.184;2022-09-13T09:49:46;4.53;;;1.33;;
16015;SDS011;8112;53.592;10.184;2022-09-13T09:55:14;2.50;;;0.80;;
16015;SDS011;8112;53.592;10.184;2022-09-13T10:00:22;3.63;;;1.20;;
16015;SDS011;8112;53.592;10.184;2022-09-13T10:05:25;2.70;;;0.57;;
16015;SDS011;8112;53.592;10.184;2022-09-13T10:10:34;2.87;;;0.80;;
16015;SDS011;8112;53.592;10.184;2022-09-13T10:15:52;1.70;;;0.60;;
16015;SDS011;8112;53.592;10.184;2022-09-13T10:20:59;3.53;;;0.90;;
16015;SDS011;8112;53.592;10.184;2022-09-13T10:26:03;4.30;;;0.90;;
16015;SDS011;8112;53.592;10.184;2022-09-13T10:31:11;4.60;;;0.90;;
16015;SDS011;8112;53.592;10.184;2022-09-13T10:36:14;4.57;;;0.87;;
16015;SDS011;8112;53.592;10.184;2022-09-13T10:41:20;4.50;;;1.17;;
16015;SDS011;8112;53.592;10.184;2022-09-13T10:46:26;3.47;;;0.80;;
16015;SDS011;8112;53.592;10.184;2022-09-13T10:51:32;1.57;;;0.60;;
16015;SDS011;8112;53.592;10.184;2022-09-13T10:56:37;3.13;;;0.70;;
16015;SDS011;8112;53.592;10.184;2022-09-13T11:01:41;3.63;;;1.07;;
16015;SDS011;8112;53.592;10.184;2022-09-13T11:06:51;5.23;;;1.47;;
16015;SDS011;8112;53.592;10.184;2022-09-13T11:12:01;4.80;;;1.00;;
16015;SDS011;8112;53.592;10.184;2022-09-13T11:17:23;2.17;;;0.70;;
16015;SDS011;8112;53.592;10.184;2022-09-13T11:22:40;3.23;;;0.70;;
16015;SDS011;8112;53.592;10.184;2022-09-13T11:27:59;3.57;;;0.80;;
16015;SDS011;8112;53.592;10.184;2022-09-13T11:33:13;3.50;;;0.87;;
16015;SDS011;8112;53.592;10.184;2022-09-13T11:38:36;4.43;;;1.07;;
16015;SDS011;8112;53.592;10.184;2022-09-13T11:43:52;4.30;;;1.00;;
16015;SDS011;8112;53.592;10.184;2022-09-13T11:49:14;2.73;;;0.70;;
16015;SDS011;8112;53.592;10.184;2022-09-13T11:54:32;2.20;;;0.60;;
16015;SDS011;8112;53.592;10.184;2022-09-13T11:59:43;2.93;;;0.90;;
16015;SDS011;8112;53.592;10.184;2022-09-13T12:04:53;3.53;;;0.70;;
16015;SDS011;8112;53.592;10.184;2022-09-13T12:10:02;2.07;;;0.40;;
16015;SDS011;8112;53.592;10.184;2022-09-13T12:15:18;2.90;;;1.03;;
16015;SDS011;8112;53.592;10.184;2022-09-13T12:20:28;3.50;;;0.70;;
16015;SDS011;8112;53.592;10.184;2022-09-13T12:25:36;4.70;;;1.00;;
16015;SDS011;8112;53.592;10.184;2022-09-13T12:30:44;2.53;;;0.60;;
16015;SDS011;8112;53.592;10.184;2022-09-13T12:35:57;6.63;;;1.20;;
16015;SDS011;8112;53.592;10.184;2022-09-13T12:41:13;4.67;;;0.90;;
16015;SDS011;8112;53.592;10.184;2022-09-13T12:46:31;5.37;;;0.90;;
16015;SDS011;8112;53.592;10.184;2022-09-13T12:52:02;3.03;;;0.97;;
16015;SDS011;8112;53.592;10.184;2022-09-13T12:57:25;4.97;;;0.90;;
16015;SDS011;8112;53.592;10.184;2022-09-13T13:02:36;4.73;;;0.93;;
16015;SDS011;8112;53.592;10.184;2022-09-13T13:07:48;3.93;;;1.50;;
16015;SDS011;8112;53.592;10.184;2022-09-13T13:12:53;6.70;;;1.53;;
16015;SDS011;8112;53.592;10.184;2022-09-13T13:17:55;6.10;;;1.30;;
16015;SDS011;8112;53.592;10.184;2022-09-13T13:23:03;2.17;;;0.90;;
16015;SDS011;8112;53.592;10.184;2022-09-13T13:33:57;4.57;;;1.30;;
16015;SDS011;8112;53.592;10.184;2022-09-13T13:39:03;2.93;;;1.20;;
16015;SDS011;8112;53.592;10.184;2022-09-13T13:49:57;2.83;;;0.73;;
16015;SDS011;8112;53.592;10.184;2022-09-13T13:55:38;3.93;;;0.57;;
16015;SDS011;8112;53.592;10.184;2022-09-13T14:00:45;5.37;;;0.93;;
16015;SDS011;8112;53.592;10.184;2022-09-13T14:05:50;4.37;;;1.23;;
16015;SDS011;8112;53.592;10.184;2022-09-13T14:11:04;6.87;;;1.40;;
16015;SDS011;8112;53.592;10.184;2022-09-13T14:16:18;3.80;;;1.03;;
16015;SDS011;8112;53.592;10.184;2022-09-13T14:21:32;4.53;;;1.03;;
16015;SDS011;8112;53.592;10.184;2022-09-13T14:26:35;4.80;;;1.60;;
16015;SDS011;8112;53.592;10.184;2022-09-13T14:31:38;2.87;;;0.97;;
16015;SDS011;8112;53.592;10.184;2022-09-13T14:36:40;7.57;;;1.40;;
16015;SDS011;8112;53.592;10.184;2022-09-13T14:42:00;7.37;;;1.40;;
16015;SDS011;8112;53.592;10.184;2022-09-13T14:47:15;6.70;;;1.40;;
16015;SDS011;8112;53.592;10.184;2022-09-13T14:52:23;4.00;;;1.27;;
16015;SDS011;8112;53.592;10.184;2022-09-13T14:57:31;4.17;;;1.07;;
16015;SDS011;8112;53.592;10.184;2022-09-13T15:02:37;4.30;;;1.53;;
16015;SDS011;8112;53.592;10.184;2022-09-13T15:07:40;6.77;;;1.30;;
16015;SDS011;8112;53.592;10.184;2022-09-13T15:12:49;4.27;;;1.40;;
16015;SDS011;8112;53.592;10.184;2022-09-13T15:17:54;7.80;;;1.73;;
16015;SDS011;8112;53.592;10.184;2022-09-13T15:22:57;4.97;;;1.30;;
16015;SDS011;8112;53.592;10.184;2022-09-13T15:28:01;8.73;;;1.70;;
16015;SDS011;8112;53.592;10.184;2022-09-13T15:33:03;2.87;;;1.07;;
16015;SDS011;8112;53.592;10.184;2022-09-13T15:38:14;7.70;;;1.57;;
16015;SDS011;8112;53.592;10.184;2022-09-13T15:43:20;4.60;;;1.60;;
16015;SDS011;8112;53.592;10.184;2022-09-13T15:48:23;3.93;;;1.00;;
16015;SDS011;8112;53.592;10.184;2022-09-13T15:53:27;3.83;;;1.10;;
16015;SDS011;8112;53.592;10.184;2022-09-13T15:58:31;8.83;;;1.40;;
16015;SDS011;8112;53.592;10.184;2022-09-13T16:03:34;4.03;;;1.23;;
16015;SDS011;8112;53.592;10.184;2022-09-13T16:08:36;6.33;;;1.37;;
16015;SDS011;8112;53.592;10.184;2022-09-13T16:13:40;7.57;;;1.50;;
16015;SDS011;8112;53.592;10.184;2022-09-13T16:18:41;3.93;;;1.37;;
16015;SDS011;8112;53.592;10.184;2022-09-13T16:23:51;5.90;;;1.83;;
16015;SDS011;8112;53.592;10.184;2022-09-13T16:28:54;2.70;;;1.30;;
16015;SDS011;8112;53.592;10.184;2022-09-13T16:33:55;2.43;;;0.97;;
16015;SDS011;8112;53.592;10.184;2022-09-13T16:38:57;4.00;;;0.90;;
16015;SDS011;8112;53.592;10.184;2022-09-13T16:44:01;3.53;;;0.93;;
16015;SDS011;8112;53.592;10.184;2022-09-13T16:49:04;5.63;;;0.93;;
16015;SDS011;8112;53.592;10.184;2022-09-13T16:54:07;4.00;;;0.90;;
16015;SDS011;8112;53.592;10.184;2022-09-13T16:59:10;3.60;;;0.93;;
16015;SDS011;8112;53.592;10.184;2022-09-13T17:04:12;2.43;;;0.87;;
16015;SDS011;8112;53.592;10.184;2022-09-13T17:09:14;2.90;;;0.70;;
16015;SDS011;8112;53.592;10.184;2022-09-13T17:14:17;3.60;;;1.20;;
16015;SDS011;8112;53.592;10.184;2022-09-13T17:19:21;3.27;;;1.27;;
16015;SDS011;8112;53.592;10.184;2022-09-13T17:24:24;2.37;;;0.77;;
16015;SDS011;8112;53.592;10.184;2022-09-13T17:29:29;2.07;;;1.00;;
16015;SDS011;8112;53.592;10.184;2022-09-13T17:34:31;3.47;;;0.87;;
16015;SDS011;8112;53.592;10.184;2022-09-13T17:39:33;5.27;;;1.03;;
16015;SDS011;8112;53.592;10.184;2022-09-13T17:44:36;5.17;;;1.70;;
16015;SDS011;8112;53.592;10.184;2022-09-13T17:49:38;5.77;;;1.93;;
16015;SDS011;8112;53.592;10.184;2022-09-13T17:54:40;4.53;;;1.50;;
16015;SDS011;8112;53.592;10.184;2022-09-13T17:59:43;2.30;;;1.00;;
16015;SDS011;8112;53.592;10.184;2022-09-13T18:04:48;4.30;;;1.47;;
16015;SDS011;8112;53.592;10.184;2022-09-13T18:09:50;4.03;;;1.30;;
16015;SDS011;8112;53.592;10.184;2022-09-13T18:14:54;3.20;;;1.47;;
16015;SDS011;8112;53.592;10.184;2022-09-13T18:19:56;4.20;;;1.10;;
16015;SDS011;8112;53.592;10.184;2022-09-13T18:24:58;2.57;;;1.40;;
16015;SDS011;8112;53.592;10.184;2022-09-13T18:30:01;4.17;;;1.57;;
16015;SDS011;8112;53.592;10.184;2022-09-13T18:35:06;2.33;;;1.10;;
16015;SDS011;8112;53.592;10.184;2022-09-13T18:40:08;6.13;;;2.07;;
16015;SDS011;8112;53.592;10.184;2022-09-13T18:45:14;4.33;;;1.40;;
16015;SDS011;8112;53.592;10.184;2022-09-13T18:50:16;2.60;;;1.10;;
16015;SDS011;8112;53.592;10.184;2022-09-13T18:55:18;3.27;;;1.10;;
16015;SDS011;8112;53.592;10.184;2022-09-13T19:00:21;5.37;;;1.57;;
16015;SDS011;8112;53.592;10.184;2022-09-13T19:05:23;4.17;;;1.60;;
16015;SDS011;8112;53.592;10.184;2022-09-13T19:10:25;2.83;;;1.33;;
16015;SDS011;8112;53.592;10.184;2022-09-13T19:15:29;3.17;;;1.40;;
16015;SDS011;8112;53.592;10.184;2022-09-13T19:20:31;3.13;;;1.47;;
16015;SDS011;8112;53.592;10.184;2022-09-13T19:25:33;3.27;;;1.33;;
16015;SDS011;8112;53.592;10.184;2022-09-13T19:30:36;6.63;;;1.47;;
16015;SDS011;8112;53.592;10.184;2022-09-13T19:35:38;4.37;;;1.50;;
16015;SDS011;8112;53.592;10.184;2022-09-13T19:40:40;3.77;;;1.03;;
16015;SDS011;8112;53.592;10.184;2022-09-13T19:45:43;3.60;;;1.30;;
16015;SDS011;8112;53.592;10.184;2022-09-13T19:50:55;2.30;;;0.97;;
16015;SDS011;8112;53.592;10.184;2022-09-13T19:55:57;2.87;;;1.13;;
16015;SDS011;8112;53.592;10.184;2022-09-13T20:01:03;2.67;;;1.40;;
16015;SDS011;8112;53.592;10.184;2022-09-13T20:06:07;4.73;;;2.10;;
16015;SDS011;8112;53.592;10.184;2022-09-13T20:11:11;2.97;;;1.20;;
16015;SDS011;8112;53.592;10.184;2022-09-13T20:16:17;4.33;;;1.60;;
16015;SDS011;8112;53.592;10.184;2022-09-13T20:21:19;3.23;;;1.40;;
16015;SDS011;8112;53.592;10.184;2022-09-13T20:26:21;2.87;;;1.10;;
16015;SDS011;8112;53.592;10.184;2022-09-13T20:31:27;3.83;;;0.80;;
16015;SDS011;8112;53.592;10.184;2022-09-13T20:36:30;2.90;;;0.90;;
16015;SDS011;8112;53.592;10.184;2022-09-13T20:41:34;3.10;;;1.00;;
16015;SDS011;8112;53.592;10.184;2022-09-13T20:46:39;4.13;;;1.03;;
16015;SDS011;8112;53.592;10.184;2022-09-13T20:51:42;3.83;;;1.20;;
16015;SDS011;8112;53.592;10.184;2022-09-13T20:56:45;3.70;;;1.20;;
16015;SDS011;8112;53.592;10.184;2022-09-13T21:01:48;4.47;;;1.10;;
16015;SDS011;8112;53.592;10.184;2022-09-13T21:06:49;4.80;;;1.50;;
16015;SDS011;8112;53.592;10.184;2022-09-13T21:12:09;1.60;;;0.90;;
16015;SDS011;8112;53.592;10.184;2022-09-13T21:17:12;4.03;;;1.00;;
16015;SDS011;8112;53.592;10.184;2022-09-13T21:22:13;4.43;;;1.00;;
16015;SDS011;8112;53.592;10.184;2022-09-13T21:27:15;3.87;;;0.90;;
16015;SDS011;8112;53.592;10.184;2022-09-13T21:32:18;3.73;;;0.90;;
16015;SDS011;8112;53.592;10.184;2022-09-13T21:37:20;6.73;;;1.47;;
16015;SDS011;8112;53.592;10.184;2022-09-13T21:42:22;2.10;;;1.03;;
16015;SDS011;8112;53.592;10.184;2022-09-13T21:47:26;2.13;;;0.90;;
16015;SDS011;8112;53.592;10.184;2022-09-13T21:52:28;5.03;;;1.50;;
16015;SDS011;8112;53.592;10.184;2022-09-13T21:57:31;10.17;;;1.20;;
16015;SDS011;8112;53.592;10.184;2022-09-13T22:02:34;3.57;;;1.20;;
16015;SDS011;8112;53.592;10.184;2022-09-13T22:07:35;3.13;;;1.00;;
16015;SDS011;8112;53.592;10.184;2022-09-13T22:12:37;4.87;;;0.90;;
16015;SDS011;8112;53.592;10.184;2022-09-13T22:17:40;2.37;;;0.97;;
16015;SDS011;8112;53.592;10.184;2022-09-13T22:22:42;4.67;;;1.30;;
16015;SDS011;8112;53.592;10.184;2022-09-13T22:27:43;2.93;;;1.10;;
16015;SDS011;8112;53.592;10.184;2022-09-13T22:32:46;4.07;;;1.33;;
16015;SDS011;8112;53.592;10.184;2022-09-13T22:37:48;4.53;;;1.13;;
16015;SDS011;8112;53.592;10.184;2022-09-13T22:42:50;3.27;;;1.33;;
16015;SDS011;8112;53.592;10.184;2022-09-13T22:47:53;3.57;;;1.20;;
16015;SDS011;8112;53.592;10.184;2022-09-13T22:52:54;2.50;;;1.20;;
16015;SDS011;8112;53.592;10.184;2022-09-13T22:57:56;2.77;;;0.90;;
16015;SDS011;8112;53.592;10.184;2022-09-13T23:02:59;3.47;;;1.40;;
16015;SDS011;8112;53.592;10.184;2022-09-13T23:08:01;3.33;;;1.10;;
16015;SDS011;8112;53.592;10.184;2022-09-13T23:13:03;3.93;;;1.37;;
16015;SDS011;8112;53.592;10.184;2022-09-13T23:18:06;7.23;;;1.20;;
16015;SDS011;8112;53.592;10.184;2022-09-13T23:23:09;3.53;;;1.53;;
16015;SDS011;8112;53.592;10.184;2022-09-13T23:28:14;1.70;;;1.00;;
16015;SDS011;8112;53.592;10.184;2022-09-13T23:33:17;3.83;;;1.13;;
16015;SDS011;8112;53.592;10.184;2022-09-13T23:38:19;4.03;;;1.30;;
16015;SDS011;8112;53.592;10.184;2022-09-13T23:43:21;4.87;;;1.10;;
16015;SDS011;8112;53.592;10.184;2022-09-13T23:48:24;4.83;;;1.40;;
16015;SDS011;8112;53.592;10.184;2022-09-13T23:53:26;5.17;;;1.47;;
16015;SDS011;8112;53.592;10.184;2022-09-13T23:58:28;6.03;;;1.57;;
